»·PEaware :: SWA938 KBUR-KLAS

SWA938 :: KBUR-KLAS

FLIGHT INFORMATION

Flight Status: Arrived
Operator:
Southwest Airlines
More flights by this operator :: More flights under this callsign
Pilot: Carl R. (23234)
Aircraft: BOEING 737-800
(B738)
More flights by this aircraft type
Origin: KBUR Bob Hope-Burbank
United States
Destination: KLAS McCarran Intl
United States
More flights between these airports :: More routes between these airports
Route: SLAPP1 MISEN KEPEC6
File this flight plan on PilotEdge
Remarks: I-05
Altitude:
(Current/Filed)
29,000ft
Speed:
(Current/Filed)
435kts
Departed: 04-Feb-19 11:04 AM
Arrived: 04-Feb-19 11:46 AM
Distance/Time
Traveled:
194nm/0:42
Distance/Time
To Go:
Arrived

Flight Plot

Page will automatically refresh every two minutes.

Flight plan parsing failed; only flown route is shown


Map Options




Map Legend


Flown Route
Filed Route
Departure Airport
Arrival Airport
Navaid (VOR, NDB)
Fix

Horizontal Profiles

Position Reports

Time Latitude Longitude Heading Altitude Ground
Speed
04-Feb-19 10:38 34.196763 -118.350109 179 785ft 0kts
04-Feb-19 10:39 34.196763 -118.350109 179 785ft 0kts
04-Feb-19 10:40 34.196763 -118.350109 179 785ft 0kts
04-Feb-19 10:41 34.196763 -118.350109 179 785ft 0kts
04-Feb-19 10:42 34.196763 -118.350109 179 785ft 0kts
04-Feb-19 10:43 34.196763 -118.350109 179 785ft 0kts
04-Feb-19 10:44 34.196763 -118.350109 179 785ft 0kts
04-Feb-19 10:45 34.196763 -118.350109 179 785ft 0kts
04-Feb-19 10:46 34.196763 -118.350109 179 785ft 0kts
04-Feb-19 10:47 34.196763 -118.350109 179 785ft 0kts
04-Feb-19 10:48 34.196763 -118.350109 179 785ft 0kts
04-Feb-19 10:49 34.196763 -118.350109 179 785ft 0kts
04-Feb-19 10:50 34.196763 -118.350109 179 785ft 0kts
04-Feb-19 10:51 34.196764 -118.350109 179 785ft 0kts
04-Feb-19 10:52 34.197150 -118.349772 263 785ft 2kts
04-Feb-19 10:53 34.197151 -118.349649 271 785ft 0kts
04-Feb-19 10:54 34.197151 -118.349650 271 784ft 0kts
04-Feb-19 10:55 34.197151 -118.349650 271 784ft 0kts
04-Feb-19 10:56 34.197156 -118.349929 271 784ft 8kts
04-Feb-19 10:57 34.197218 -118.355408 280 784ft 0kts
04-Feb-19 10:58 34.200621 -118.355863 346 784ft 20kts
04-Feb-19 10:59 34.205604 -118.357242 347 784ft 17kts
04-Feb-19 11:00 34.209402 -118.358290 348 785ft 9kts
04-Feb-19 11:01 34.211656 -118.359081 315 785ft 3kts
04-Feb-19 11:02 34.209980 -118.359823 167 784ft 25kts
04-Feb-19 11:03 34.177308 -118.350706 164 2050ft 159kts
04-Feb-19 11:04 34.129577 -118.353180 219 3584ft 225kts
04-Feb-19 11:05 34.140783 -118.416747 342 6671ft 284kts
04-Feb-19 11:06 34.217876 -118.402226 9 9719ft 307kts
04-Feb-19 11:07 34.303104 -118.378034 9 11478ft 365kts
04-Feb-19 11:08 34.404029 -118.349028 8 14488ft 383kts
04-Feb-19 11:09 34.508370 -118.309114 29 17089ft 417kts
04-Feb-19 11:10 34.590287 -118.203478 37 18875ft 444kts
04-Feb-19 11:11 34.664173 -118.094309 65 20998ft 461kts
04-Feb-19 11:12 34.695095 -117.940337 90 23190ft 470kts
04-Feb-19 11:13 34.703540 -117.783691 90 25210ft 483kts
04-Feb-19 11:14 34.710280 -117.621354 92 27255ft 490kts
04-Feb-19 11:15 34.725070 -117.458369 75 28850ft 513kts
04-Feb-19 11:16 34.771988 -117.291873 75 28855ft 540kts
04-Feb-19 11:17 34.816877 -117.121958 75 28861ft 533kts
04-Feb-19 11:18 34.861396 -116.952250 75 28854ft 533kts
04-Feb-19 11:19 34.905286 -116.783962 75 28865ft 526kts
04-Feb-19 11:20 34.973812 -116.629312 51 28866ft 528kts
04-Feb-19 11:21 35.057800 -116.483278 55 28871ft 529kts
04-Feb-19 11:22 35.139710 -116.354144 43 28867ft 527kts
04-Feb-19 11:23 35.245330 -116.223294 44 28854ft 524kts
04-Feb-19 11:24 35.344192 -116.099389 44 26891ft 506kts
04-Feb-19 11:25 35.439945 -115.978705 44 23890ft 507kts
04-Feb-19 11:26 35.537437 -115.855148 44 19415ft 501kts
04-Feb-19 11:27 35.631137 -115.735898 43 14989ft 476kts
04-Feb-19 11:28 35.710187 -115.634765 43 14679ft 374kts
04-Feb-19 11:29 35.794218 -115.577496 4 13365ft 333kts
04-Feb-19 11:30 35.881763 -115.550458 35 12649ft 348kts
04-Feb-19 11:32 35.934251 -115.452129 61 10937ft 345kts
04-Feb-19 11:33 35.977006 -115.358572 61 9437ft 326kts
04-Feb-19 11:34 36.011815 -115.283425 64 8348ft 316kts
04-Feb-19 11:35 36.022949 -115.192930 91 7194ft 297kts
04-Feb-19 11:36 36.027673 -115.098680 91 7039ft 279kts
04-Feb-19 11:37 36.024603 -114.992743 101 7039ft 275kts
04-Feb-19 11:38 36.015913 -114.887149 101 6157ft 279kts
04-Feb-19 11:39 36.033681 -114.797617 39 5043ft 282kts
04-Feb-19 11:40 36.099343 -114.804425 293 5048ft 248kts
04-Feb-19 11:41 36.094784 -114.879644 242 5023ft 227kts
04-Feb-19 11:42 36.073612 -114.947518 258 4665ft 224kts
04-Feb-19 11:43 36.071371 -115.015186 261 3931ft 189kts
04-Feb-19 11:44 36.071321 -115.067100 274 3079ft 165kts
04-Feb-19 11:45 36.073768 -115.111084 264 2501ft 159kts
04-Feb-19 11:46 36.073617 -115.146968 271 2189ft 39kts
04-Feb-19 11:47 36.075137 -115.151118 315 2189ft 10kts
04-Feb-19 11:47 36.077367 -115.152521 334 2188ft 3kts
04-Feb-19 11:49 36.080369 -115.154255 335 2189ft 19kts
04-Feb-19 11:50 36.082353 -115.153533 50 2189ft 4kts
04-Feb-19 11:51 36.082470 -115.153361 50 2189ft 0kts
04-Feb-19 11:51 36.082470 -115.153361 50 2189ft 0kts

Navigation Log

Ident Type
Flight plan parsing failed, navigation log unavailable